createdAt,value
2022-12-29T00:00:11.907Z,5.80
2022-12-29T00:02:38.900Z,5.80
2022-12-29T00:05:06.563Z,5.80
2022-12-29T00:07:33.471Z,5.90
2022-12-29T00:10:01.315Z,5.80
2022-12-29T00:12:48.084Z,5.80
2022-12-29T00:15:33.484Z,5.80
2022-12-29T00:18:01.104Z,5.80
2022-12-29T00:20:46.563Z,5.90
2022-12-29T00:23:31.894Z,5.90
2022-12-29T00:26:21.936Z,5.80
2022-12-29T00:29:07.638Z,5.90
2022-12-29T00:31:53.384Z,5.80
2022-12-29T00:34:38.704Z,5.90
2022-12-29T00:37:05.885Z,5.80
2022-12-29T00:39:51.360Z,5.80
2022-12-29T00:42:36.727Z,5.70
2022-12-29T00:45:04.520Z,5.80
2022-12-29T00:47:31.339Z,5.80
2022-12-29T00:49:58.352Z,5.80
2022-12-29T00:52:25.328Z,5.80
2022-12-29T00:54:52.269Z,5.80
2022-12-29T00:57:19.661Z,5.80
2022-12-29T00:59:46.608Z,5.80
2022-12-29T01:02:13.618Z,5.70
2022-12-29T01:04:40.494Z,5.90
2022-12-29T01:07:07.382Z,5.80
2022-12-29T01:09:52.715Z,5.80
2022-12-29T01:13:15.663Z,5.80
2022-12-29T01:15:51.795Z,5.80
2022-12-29T01:18:18.756Z,5.80
2022-12-29T01:20:45.655Z,5.80
2022-12-29T01:23:12.527Z,5.80
2022-12-29T01:25:39.375Z,5.80
2022-12-29T01:28:07.512Z,5.70
2022-12-29T01:30:34.576Z,5.80
2022-12-29T01:33:01.810Z,5.80
2022-12-29T01:35:29.273Z,5.80
2022-12-29T01:37:56.120Z,5.80
2022-12-29T01:40:23.094Z,5.80
2022-12-29T01:42:49.990Z,5.80
2022-12-29T01:45:18.957Z,5.80
2022-12-29T01:47:56.491Z,5.80
2022-12-29T01:50:51.921Z,5.70
2022-12-29T01:53:29.289Z,5.80
2022-12-29T01:56:05.911Z,5.80
2022-12-29T01:58:41.202Z,5.80
2022-12-29T02:01:08.532Z,5.80
2022-12-29T02:03:37.327Z,5.80
2022-12-29T02:06:16.459Z,5.80
2022-12-29T02:08:47.142Z,5.80
2022-12-29T02:11:14.809Z,5.80
2022-12-29T02:13:41.694Z,5.70
2022-12-29T02:16:27.197Z,5.70
2022-12-29T02:19:06.968Z,5.70
2022-12-29T02:22:08.260Z,5.70
2022-12-29T02:25:00.812Z,5.80
2022-12-29T02:27:49.608Z,5.80
2022-12-29T02:30:34.617Z,5.70
2022-12-29T02:33:14.936Z,5.60
2022-12-29T02:36:09.050Z,5.60
2022-12-29T02:39:08.227Z,5.60
2022-12-29T02:41:50.764Z,5.60
2022-12-29T02:44:49.520Z,5.60
2022-12-29T02:47:31.152Z,5.60
2022-12-29T02:50:15.160Z,5.50
2022-12-29T02:52:51.489Z,5.50
2022-12-29T02:55:18.554Z,5.40
2022-12-29T02:57:45.476Z,5.30
2022-12-29T03:00:16.107Z,5.30
2022-12-29T03:03:12.868Z,5.30
2022-12-29T03:05:54.457Z,5.20
2022-12-29T03:08:27.082Z,5.10
2022-12-29T03:11:03.486Z,5.00
2022-12-29T03:13:51.537Z,4.90
2022-12-29T03:16:34.112Z,4.80
2022-12-29T03:19:16.573Z,4.70
2022-12-29T03:22:09.869Z,4.60
2022-12-29T03:24:42.053Z,4.60
2022-12-29T03:27:14.550Z,4.50
2022-12-29T03:29:47.925Z,4.60
2022-12-29T03:32:16.298Z,4.60
2022-12-29T03:34:45.875Z,4.50
2022-12-29T03:37:16.020Z,4.60
2022-12-29T03:39:45.220Z,4.60
2022-12-29T03:42:19.792Z,4.60
2022-12-29T03:44:47.748Z,4.60
2022-12-29T03:47:15.933Z,4.50
2022-12-29T03:49:42.740Z,4.50
2022-12-29T03:52:09.560Z,4.50
2022-12-29T03:54:36.406Z,4.50
2022-12-29T03:57:03.183Z,4.50
2022-12-29T03:59:30.009Z,4.50
2022-12-29T04:01:56.896Z,4.40
2022-12-29T04:04:23.894Z,4.30
2022-12-29T04:06:50.797Z,4.20
2022-12-29T04:09:17.769Z,4.20
2022-12-29T04:11:44.684Z,4.30
2022-12-29T04:14:11.539Z,4.20
2022-12-29T04:16:39.915Z,4.20
2022-12-29T04:19:08.525Z,4.20
2022-12-29T04:21:35.796Z,4.20
2022-12-29T04:24:02.683Z,4.20
2022-12-29T04:26:29.567Z,4.20
2022-12-29T04:28:56.431Z,4.20
2022-12-29T04:31:23.299Z,4.20
2022-12-29T04:33:50.108Z,4.10
2022-12-29T04:36:17.077Z,4.20
2022-12-29T04:38:45.718Z,4.10
2022-12-29T04:41:12.525Z,4.10
2022-12-29T04:43:39.380Z,4.10
2022-12-29T04:46:06.797Z,4.10
2022-12-29T04:48:34.272Z,4.10
2022-12-29T04:51:01.592Z,4.10
2022-12-29T04:53:28.514Z,4.10
2022-12-29T04:55:55.645Z,4.10
2022-12-29T04:58:23.491Z,4.10
2022-12-29T05:00:52.277Z,4.10
2022-12-29T05:03:19.695Z,4.10
2022-12-29T05:05:46.660Z,4.00
2022-12-29T05:08:13.591Z,4.00
2022-12-29T05:10:40.797Z,4.00
2022-12-29T05:13:07.782Z,4.00
2022-12-29T05:15:34.608Z,4.10
2022-12-29T05:18:57.972Z,4.00
2022-12-29T05:21:24.964Z,4.00
2022-12-29T05:23:51.980Z,3.90
2022-12-29T05:26:18.844Z,4.00
2022-12-29T05:28:45.841Z,4.00
2022-12-29T05:31:12.818Z,4.00
2022-12-29T05:33:39.718Z,4.00
2022-12-29T05:36:08.124Z,4.00
2022-12-29T05:38:35.710Z,4.10
2022-12-29T05:41:02.924Z,4.00
2022-12-29T05:43:29.915Z,4.10
2022-12-29T05:45:57.544Z,4.10
2022-12-29T05:48:24.441Z,4.10
2022-12-29T05:50:52.643Z,4.20
2022-12-29T05:53:24.615Z,4.20
2022-12-29T05:55:51.543Z,4.20
2022-12-29T05:58:19.025Z,4.20
2022-12-29T06:00:46.189Z,4.20
2022-12-29T06:03:13.281Z,4.20
2022-12-29T06:05:40.185Z,4.20
2022-12-29T06:08:07.179Z,4.20
2022-12-29T06:10:34.083Z,4.20
2022-12-29T06:13:00.998Z,4.20
2022-12-29T06:15:27.974Z,4.30
2022-12-29T06:17:55.027Z,4.40
2022-12-29T06:20:22.011Z,4.40
2022-12-29T06:22:49.051Z,4.40
2022-12-29T06:25:16.373Z,4.40
2022-12-29T06:27:43.609Z,4.50
2022-12-29T06:30:11.873Z,4.60
2022-12-29T06:32:38.931Z,4.60
2022-12-29T06:35:09.408Z,4.60
2022-12-29T06:37:36.591Z,4.70
2022-12-29T06:40:03.598Z,4.70
2022-12-29T06:42:30.445Z,4.70
2022-12-29T06:44:59.898Z,4.70
2022-12-29T06:47:31.903Z,4.70
2022-12-29T06:49:58.773Z,4.70
2022-12-29T06:52:25.651Z,4.70
2022-12-29T06:54:52.583Z,4.70
2022-12-29T06:57:19.479Z,4.70
2022-12-29T06:59:46.436Z,4.80
2022-12-29T07:02:15.474Z,4.80
2022-12-29T07:04:42.525Z,4.80
2022-12-29T07:07:09.473Z,4.90
2022-12-29T07:09:36.418Z,4.90
2022-12-29T07:12:03.388Z,4.90
2022-12-29T07:14:30.243Z,4.90
2022-12-29T07:16:57.200Z,5.00
2022-12-29T07:19:24.526Z,5.00
2022-12-29T07:21:51.468Z,5.10
2022-12-29T07:24:18.544Z,5.10
2022-12-29T07:26:45.435Z,5.10
2022-12-29T07:29:14.743Z,5.20
2022-12-29T07:31:44.377Z,5.10
2022-12-29T07:34:15.933Z,5.20
2022-12-29T07:36:43.467Z,5.20
2022-12-29T07:39:10.424Z,5.20
2022-12-29T07:41:37.438Z,5.20
2022-12-29T07:44:09.037Z,5.20
2022-12-29T07:46:54.325Z,5.30
2022-12-29T07:49:23.912Z,5.30
2022-12-29T07:51:50.969Z,5.40
2022-12-29T07:54:20.785Z,5.40
2022-12-29T07:56:47.926Z,5.40
2022-12-29T07:59:21.241Z,5.40
2022-12-29T08:01:50.706Z,5.40
2022-12-29T08:04:19.246Z,5.50
2022-12-29T08:06:53.082Z,5.50
2022-12-29T08:09:24.137Z,5.50
2022-12-29T08:11:57.327Z,5.70
2022-12-29T08:14:24.805Z,5.60
2022-12-29T08:16:51.657Z,5.70
2022-12-29T08:19:18.743Z,5.70
2022-12-29T08:21:45.791Z,5.80
2022-12-29T08:24:12.805Z,5.80
2022-12-29T08:26:39.725Z,5.90
2022-12-29T08:29:06.585Z,5.90
2022-12-29T08:31:33.522Z,5.90
2022-12-29T08:34:02.509Z,6.00
2022-12-29T08:36:29.839Z,6.00
2022-12-29T08:38:56.669Z,6.00
2022-12-29T08:41:24.060Z,6.20
2022-12-29T08:43:51.303Z,6.10
2022-12-29T08:46:18.385Z,6.20
2022-12-29T08:48:50.978Z,6.20
2022-12-29T08:51:22.759Z,6.30
2022-12-29T08:53:54.243Z,6.20
2022-12-29T08:56:24.873Z,6.40
2022-12-29T08:58:53.090Z,6.40
2022-12-29T09:01:20.860Z,6.40
2022-12-29T09:04:14.349Z,6.50
2022-12-29T09:06:39.867Z,6.50
2022-12-29T09:09:07.454Z,6.50
2022-12-29T09:11:34.430Z,6.60
2022-12-29T09:14:01.338Z,6.60
2022-12-29T09:16:28.321Z,6.60
2022-12-29T09:18:55.324Z,6.60
2022-12-29T09:21:22.403Z,6.60
2022-12-29T09:23:49.808Z,6.60
2022-12-29T09:26:24.239Z,6.70
2022-12-29T09:28:51.187Z,6.70
2022-12-29T09:31:18.244Z,6.80
2022-12-29T09:33:45.110Z,6.80
2022-12-29T09:36:12.094Z,6.80
2022-12-29T09:38:38.923Z,6.80
2022-12-29T09:41:31.446Z,6.90
2022-12-29T09:44:33.172Z,6.90
2022-12-29T09:47:01.817Z,6.90
2022-12-29T09:49:50.528Z,6.90
2022-12-29T09:52:23.077Z,6.90
2022-12-29T09:55:03.221Z,7.10
2022-12-29T09:57:58.319Z,7.10
2022-12-29T10:00:38.396Z,7.00
2022-12-29T10:03:17.410Z,7.10
2022-12-29T10:06:02.985Z,7.20
2022-12-29T10:08:41.520Z,7.20
2022-12-29T10:11:27.787Z,7.10
2022-12-29T10:14:04.719Z,7.10
2022-12-29T10:16:59.535Z,7.10
2022-12-29T10:19:38.980Z,7.20
2022-12-29T10:22:17.804Z,7.10
2022-12-29T10:24:48.397Z,7.10
2022-12-29T10:27:17.923Z,7.20
2022-12-29T10:29:57.305Z,7.20
2022-12-29T10:32:37.467Z,7.10
2022-12-29T10:35:13.601Z,7.10
2022-12-29T10:37:48.829Z,7.10
2022-12-29T10:40:32.912Z,7.20
2022-12-29T10:43:06.988Z,7.40
2022-12-29T10:45:35.113Z,7.40
2022-12-29T10:48:06.580Z,7.50
2022-12-29T10:50:34.324Z,7.50
2022-12-29T10:53:06.558Z,7.60
2022-12-29T10:55:36.825Z,7.60
2022-12-29T10:58:07.219Z,7.70
2022-12-29T11:00:36.087Z,7.60
2022-12-29T11:03:44.258Z,7.70
2022-12-29T11:06:34.880Z,7.70
2022-12-29T11:09:15.428Z,7.70
2022-12-29T11:11:48.208Z,7.80
2022-12-29T11:14:32.338Z,7.70
2022-12-29T11:17:04.723Z,7.80
2022-12-29T11:19:44.115Z,7.80
2022-12-29T11:22:23.506Z,7.80
2022-12-29T11:25:19.599Z,7.80
2022-12-29T11:32:27.788Z,7.90
2022-12-29T11:34:59.946Z,7.90
2022-12-29T11:37:43.660Z,8.00
2022-12-29T11:40:24.003Z,8.00
2022-12-29T11:43:03.882Z,8.00
2022-12-29T11:45:35.271Z,8.00
2022-12-29T11:48:16.173Z,8.00
2022-12-29T11:50:52.634Z,7.90
2022-12-29T11:53:29.638Z,8.00
2022-12-29T11:55:58.619Z,7.90
2022-12-29T11:58:37.712Z,8.00
2022-12-29T12:01:18.020Z,8.00
2022-12-29T12:04:20.162Z,8.10
2022-12-29T12:07:19.801Z,8.10
2022-12-29T12:10:40.191Z,8.20
2022-12-29T12:13:42.495Z,8.20
2022-12-29T12:16:42.564Z,8.20
2022-12-29T12:19:42.295Z,8.20
2022-12-29T12:23:07.200Z,8.30
2022-12-29T12:29:50.855Z,8.30
2022-12-29T12:32:45.551Z,8.40
2022-12-29T12:35:21.306Z,8.30
2022-12-29T12:38:30.857Z,8.40
2022-12-29T12:42:02.929Z,8.30
2022-12-29T12:44:52.384Z,8.40
2022-12-29T12:47:54.645Z,8.40
2022-12-29T12:50:43.213Z,8.40
2022-12-29T12:53:52.047Z,8.40
2022-12-29T12:56:36.847Z,8.50
2022-12-29T12:59:14.725Z,8.50
2022-12-29T13:02:18.209Z,8.50
2022-12-29T13:05:49.186Z,8.50
2022-12-29T13:09:09.404Z,8.70
2022-12-29T13:11:54.034Z,8.60
2022-12-29T13:14:53.499Z,8.70
2022-12-29T13:17:44.365Z,8.70
2022-12-29T13:20:29.137Z,8.70
2022-12-29T13:23:21.461Z,8.70
2022-12-29T13:25:57.279Z,8.70
2022-12-29T13:28:30.933Z,8.80
2022-12-29T13:31:34.489Z,8.80
2022-12-29T13:34:31.123Z,8.80
2022-12-29T13:37:35.065Z,8.80
2022-12-29T13:40:16.359Z,8.80
2022-12-29T13:42:44.417Z,8.80
2022-12-29T13:46:06.016Z,9.00
2022-12-29T13:48:41.827Z,8.80
2022-12-29T13:51:11.723Z,8.80
2022-12-29T13:54:20.694Z,8.80
2022-12-29T14:00:34.104Z,8.90
2022-12-29T14:03:30.305Z,8.90
2022-12-29T14:06:41.933Z,8.90
2022-12-29T14:09:35.526Z,8.90
2022-12-29T14:12:08.034Z,8.90
2022-12-29T14:14:38.128Z,8.90
2022-12-29T14:17:15.148Z,8.90
2022-12-29T14:19:47.421Z,8.90
2022-12-29T14:22:14.377Z,8.90
2022-12-29T14:24:47.654Z,8.90
2022-12-29T14:27:14.929Z,8.90
2022-12-29T14:29:42.011Z,8.80
2022-12-29T14:32:27.325Z,8.80
2022-12-29T14:35:02.167Z,8.90
2022-12-29T14:37:40.148Z,8.80
2022-12-29T14:44:20.766Z,8.90
2022-12-29T14:47:00.393Z,8.90
2022-12-29T14:49:32.335Z,8.80
2022-12-29T14:52:08.499Z,8.80
2022-12-29T14:54:42.329Z,8.80
2022-12-29T14:57:34.090Z,8.90
2022-12-29T15:00:14.226Z,8.80
2022-12-29T15:02:44.973Z,9.00
2022-12-29T15:05:31.812Z,8.90
2022-12-29T15:08:00.169Z,8.90
2022-12-29T15:10:38.360Z,8.90
2022-12-29T15:13:27.342Z,8.90
2022-12-29T15:16:20.140Z,8.90
2022-12-29T15:18:47.247Z,8.90
2022-12-29T15:21:25.910Z,8.90
2022-12-29T15:23:59.037Z,8.80
2022-12-29T15:26:41.636Z,9.00
2022-12-29T15:29:40.039Z,8.90
2022-12-29T15:33:06.452Z,8.90
2022-12-29T15:38:18.337Z,8.90
2022-12-29T15:40:46.931Z,8.90
2022-12-29T15:43:32.271Z,8.90
2022-12-29T15:46:03.985Z,8.90
2022-12-29T15:48:34.795Z,8.90
2022-12-29T15:51:01.990Z,8.80
2022-12-29T15:53:34.599Z,8.90
2022-12-29T15:56:07.595Z,8.80
2022-12-29T15:58:45.875Z,8.80
2022-12-29T16:01:25.348Z,8.80
2022-12-29T16:03:53.943Z,8.80
2022-12-29T16:06:39.284Z,8.80
2022-12-29T16:09:17.609Z,8.70
2022-12-29T16:11:54.703Z,8.80
2022-12-29T16:14:35.377Z,8.60
2022-12-29T16:17:07.884Z,8.60
2022-12-29T16:19:43.931Z,8.60
2022-12-29T16:22:37.024Z,8.60
2022-12-29T16:25:12.388Z,8.60
2022-12-29T16:27:43.358Z,8.60
2022-12-29T16:30:36.585Z,8.50
2022-12-29T16:33:06.345Z,8.60
2022-12-29T16:35:48.446Z,8.60
2022-12-29T16:38:23.962Z,8.50
2022-12-29T16:41:03.449Z,8.50
2022-12-29T16:43:35.310Z,8.50
2022-12-29T16:46:02.280Z,8.50
2022-12-29T16:48:31.931Z,8.50
2022-12-29T16:51:13.734Z,8.40
2022-12-29T16:53:49.236Z,8.40
2022-12-29T16:56:19.218Z,8.40
2022-12-29T16:58:52.096Z,8.50
2022-12-29T17:01:20.181Z,8.40
2022-12-29T17:03:55.614Z,8.40
2022-12-29T17:06:23.530Z,8.40
2022-12-29T17:08:51.818Z,8.40
2022-12-29T17:11:57.737Z,8.50
2022-12-29T17:14:50.494Z,8.50
2022-12-29T17:17:45.444Z,8.40
2022-12-29T17:20:18.232Z,8.50
2022-12-29T17:22:48.950Z,8.50
2022-12-29T17:25:18.658Z,8.50
2022-12-29T17:27:50.008Z,8.50
2022-12-29T17:30:20.856Z,8.50
2022-12-29T17:32:53.251Z,8.50
2022-12-29T17:35:22.621Z,8.50
2022-12-29T17:37:50.453Z,8.60
2022-12-29T17:40:28.546Z,8.50
2022-12-29T17:42:57.470Z,8.50
2022-12-29T17:45:27.105Z,8.60
2022-12-29T17:47:54.370Z,8.50
2022-12-29T17:50:34.724Z,8.50
2022-12-29T17:53:07.359Z,8.50
2022-12-29T17:55:38.000Z,8.60
2022-12-29T17:58:18.900Z,8.50
2022-12-29T18:00:48.504Z,8.50
2022-12-29T18:03:22.554Z,8.40
2022-12-29T18:05:50.383Z,8.40
2022-12-29T18:08:17.326Z,8.40
2022-12-29T18:10:44.587Z,8.40
2022-12-29T18:13:45.879Z,8.30
2022-12-29T18:16:15.021Z,8.30
2022-12-29T18:18:42.424Z,8.30
2022-12-29T18:21:17.443Z,8.30
2022-12-29T18:23:45.196Z,8.30
2022-12-29T18:26:29.164Z,8.30
2022-12-29T18:29:00.178Z,8.20
2022-12-29T18:31:31.727Z,8.30
2022-12-29T18:34:01.953Z,8.20
2022-12-29T18:36:32.750Z,8.20
2022-12-29T18:39:03.018Z,8.20
2022-12-29T18:41:30.732Z,8.20
2022-12-29T18:43:58.975Z,8.10
2022-12-29T18:46:26.625Z,8.20
2022-12-29T18:48:54.156Z,8.10
2022-12-29T18:51:25.972Z,8.10
2022-12-29T18:53:54.407Z,8.10
2022-12-29T18:56:23.519Z,8.10
2022-12-29T18:58:51.675Z,8.10
2022-12-29T19:01:31.341Z,8.10
2022-12-29T19:05:03.395Z,8.10
2022-12-29T19:08:07.586Z,8.10
2022-12-29T19:10:35.682Z,8.10
2022-12-29T19:13:02.642Z,8.10
2022-12-29T19:15:48.358Z,8.10
2022-12-29T19:21:09.952Z,8.10
2022-12-29T19:23:42.440Z,8.20
2022-12-29T19:26:28.824Z,8.20
2022-12-29T19:28:56.348Z,8.20
2022-12-29T19:31:26.886Z,8.30
2022-12-29T19:33:54.157Z,8.20
2022-12-29T19:36:21.906Z,8.30
2022-12-29T19:38:49.007Z,8.20
2022-12-29T19:41:18.459Z,8.20
2022-12-29T19:43:45.532Z,8.20
2022-12-29T19:46:19.797Z,8.20
2022-12-29T19:48:48.448Z,8.20
2022-12-29T19:51:17.222Z,8.20
2022-12-29T19:53:45.917Z,8.30
2022-12-29T19:56:13.571Z,8.30
2022-12-29T19:58:46.563Z,8.30
2022-12-29T20:01:22.786Z,8.20
2022-12-29T20:03:50.934Z,8.30
2022-12-29T20:06:18.337Z,8.30
2022-12-29T20:08:45.304Z,8.30
2022-12-29T20:11:14.970Z,8.30
2022-12-29T20:13:42.685Z,8.40
2022-12-29T20:16:18.729Z,8.50
2022-12-29T20:18:46.027Z,8.40
2022-12-29T20:21:19.734Z,8.40
2022-12-29T20:23:47.657Z,8.40
2022-12-29T20:26:17.533Z,8.40
2022-12-29T20:28:45.009Z,8.40
2022-12-29T20:31:25.419Z,8.40
2022-12-29T20:33:52.754Z,8.40
2022-12-29T20:36:24.225Z,8.40
2022-12-29T20:38:52.236Z,8.40
2022-12-29T20:41:19.686Z,8.50
2022-12-29T20:43:46.843Z,8.40
2022-12-29T20:46:18.067Z,8.50
2022-12-29T20:48:48.882Z,8.50
2022-12-29T20:51:16.305Z,8.50
2022-12-29T20:53:43.244Z,8.40
2022-12-29T20:56:19.262Z,8.40
2022-12-29T20:59:25.322Z,8.30
2022-12-29T21:01:34.153Z,8.30
2022-12-29T21:04:01.403Z,8.30
2022-12-29T21:06:28.481Z,8.30
2022-12-29T21:08:55.551Z,8.30
2022-12-29T21:11:23.238Z,8.30
2022-12-29T21:13:50.429Z,8.30
2022-12-29T21:16:21.446Z,8.30
2022-12-29T21:18:49.412Z,8.30
2022-12-29T21:21:21.869Z,8.30
2022-12-29T21:23:50.273Z,8.30
2022-12-29T21:26:26.010Z,8.30
2022-12-29T21:29:05.655Z,8.30
2022-12-29T21:31:35.415Z,8.20
2022-12-29T21:34:04.487Z,8.20
2022-12-29T21:36:33.653Z,8.30
2022-12-29T21:39:07.072Z,8.30
2022-12-29T21:41:35.166Z,8.30
2022-12-29T21:44:20.443Z,8.40
2022-12-29T21:46:59.473Z,8.40
2022-12-29T21:49:28.013Z,8.30
2022-12-29T21:51:56.112Z,8.40
2022-12-29T21:54:49.394Z,8.50
2022-12-29T21:57:38.738Z,8.50
2022-12-29T22:00:26.560Z,8.50
2022-12-29T22:03:20.143Z,8.50
2022-12-29T22:06:17.367Z,8.50
2022-12-29T22:09:02.592Z,8.50
2022-12-29T22:11:47.856Z,8.50
2022-12-29T22:14:14.850Z,8.60
2022-12-29T22:16:42.019Z,8.60
2022-12-29T22:19:10.638Z,8.60
2022-12-29T22:21:37.643Z,8.60
2022-12-29T22:24:05.024Z,8.60
2022-12-29T22:26:32.168Z,8.60
2022-12-29T22:28:59.376Z,8.60
2022-12-29T22:31:29.696Z,8.60
2022-12-29T22:33:57.906Z,8.50
2022-12-29T22:36:25.954Z,8.50
2022-12-29T22:38:53.254Z,8.50
2022-12-29T22:41:20.195Z,8.50
2022-12-29T22:43:47.249Z,8.50
2022-12-29T22:46:14.341Z,8.50
2022-12-29T22:48:42.060Z,8.40
2022-12-29T22:51:09.541Z,8.40
2022-12-29T22:53:36.533Z,8.40
2022-12-29T22:56:13.304Z,8.30
2022-12-29T22:58:45.462Z,8.20
2022-12-29T23:01:16.072Z,8.10
2022-12-29T23:03:46.250Z,8.10
2022-12-29T23:06:16.231Z,8.00
2022-12-29T23:08:44.701Z,8.00
2022-12-29T23:11:18.515Z,7.90
2022-12-29T23:13:45.575Z,7.90
2022-12-29T23:16:15.374Z,7.80
2022-12-29T23:18:43.697Z,7.80
2022-12-29T23:21:13.503Z,7.80
2022-12-29T23:23:56.804Z,7.80
2022-12-29T23:26:33.769Z,7.70
2022-12-29T23:29:02.580Z,7.80
2022-12-29T23:31:30.503Z,7.70
2022-12-29T23:34:02.220Z,7.80
2022-12-29T23:36:29.878Z,7.70
2022-12-29T23:38:57.474Z,7.70
2022-12-29T23:41:25.210Z,7.70
2022-12-29T23:43:52.316Z,7.70
2022-12-29T23:46:32.118Z,7.70
2022-12-29T23:48:59.096Z,7.70
2022-12-29T23:51:29.788Z,7.60
2022-12-29T23:53:57.124Z,7.60
2022-12-29T23:56:27.670Z,7.60
2022-12-29T23:58:54.711Z,7.60
